Time;durP1;ratioP1;P1;durP2;ratioP2;P2;SDS_P1;SDS_P2;PMS_P1;PMS_P2;Temp;Humidity;BMP_temperature;BMP_pressure;BME280_temperature;BME280_humidity;BME280_pressure;Samples;Min_cycle;Max_cycle;Signal;HPM_P1;HPM_P2
2023/09/15 00:01:33;;;;;;;20.27;15.23;;;15.10;99.90;;;;;;5041382;28;36184;-78
2023/09/15 00:04:02;;;;;;;16.65;13.70;;;15.10;99.90;;;;;;5060737;28;37341;-78
2023/09/15 00:06:28;;;;;;;17.02;13.77;;;15.10;99.90;;;;;;5040609;28;47209;-78
2023/09/15 00:08:54;;;;;;;16.75;14.32;;;15.10;99.90;;;;;;5041144;28;36445;-78
2023/09/15 00:11:22;;;;;;;16.67;13.98;;;15.10;99.90;;;;;;5038759;28;35977;-78
2023/09/15 00:13:48;;;;;;;14.40;12.95;;;15.00;99.90;;;;;;5040689;28;38942;-78
2023/09/15 00:16:15;;;;;;;16.45;13.75;;;15.00;99.90;;;;;;5058069;28;41339;-79
2023/09/15 00:18:44;;;;;;;13.57;11.93;;;15.00;99.90;;;;;;5057126;28;37869;-78
2023/09/15 00:21:11;;;;;;;20.75;14.60;;;15.00;99.90;;;;;;5037673;28;37566;-78
2023/09/15 00:23:37;;;;;;;14.80;12.90;;;14.90;99.90;;;;;;5058233;28;39552;-78
2023/09/15 00:26:04;;;;;;;15.38;13.80;;;14.90;99.90;;;;;;5056573;28;38490;-79
2023/09/15 00:28:30;;;;;;;19.08;14.52;;;14.80;99.90;;;;;;5056010;28;41307;-78
2023/09/15 00:31:00;;;;;;;17.02;15.05;;;14.80;99.90;;;;;;5056448;28;37183;-76
2023/09/15 00:33:26;;;;;;;18.63;15.65;;;14.80;99.90;;;;;;5036443;28;37715;-77
2023/09/15 00:35:52;;;;;;;25.42;16.80;;;14.80;99.90;;;;;;5039669;28;40083;-77
2023/09/15 00:38:20;;;;;;;18.98;16.52;;;14.80;99.90;;;;;;5037338;28;37796;-77
2023/09/15 00:40:46;;;;;;;17.13;14.90;;;14.80;99.90;;;;;;5039543;28;36209;-77
2023/09/15 00:43:13;;;;;;;16.40;14.52;;;14.70;99.90;;;;;;5056932;28;38554;-77
2023/09/15 00:45:39;;;;;;;17.48;13.73;;;14.70;99.90;;;;;;5037331;28;38685;-77
2023/09/15 00:48:07;;;;;;;23.17;16.95;;;14.70;99.90;;;;;;5053395;28;37867;-77
2023/09/15 00:50:33;;;;;;;21.27;16.55;;;14.70;99.90;;;;;;5056526;28;35912;-76
2023/09/15 00:53:04;;;;;;;17.88;15.98;;;14.70;99.90;;;;;;5053082;28;38583;-77
2023/09/15 00:55:34;;;;;;;22.10;17.98;;;14.60;99.90;;;;;;5052071;28;48339;-78
2023/09/15 00:58:03;;;;;;;22.92;18.13;;;14.60;99.90;;;;;;5057699;28;37920;-76
2023/09/15 01:03:11;;;;;;;20.13;16.90;;;14.60;99.90;;;;;;5366482;22;20057;-77
2023/09/15 01:05:39;;;;;;;19.52;15.93;;;14.60;99.90;;;;;;5041122;28;40633;-77
2023/09/15 01:08:06;;;;;;;20.05;17.75;;;14.60;99.90;;;;;;5043778;28;39571;-77
2023/09/15 01:10:33;;;;;;;21.92;16.15;;;14.60;99.90;;;;;;5044799;28;37054;-77
2023/09/15 01:13:00;;;;;;;22.70;18.00;;;14.50;99.90;;;;;;5029203;28;37617;-78
2023/09/15 01:15:54;;;;;;;22.70;19.27;;;14.50;99.90;;;;;;5028428;28;37341;-78
2023/09/15 01:18:31;;;;;;;22.05;17.15;;;14.50;99.90;;;;;;5022733;28;37140;-78
2023/09/15 01:21:13;;;;;;;18.30;16.23;;;14.50;99.90;;;;;;5044026;28;37562;-76
2023/09/15 01:24:11;;;;;;;17.63;15.75;;;14.50;99.90;;;;;;5039798;28;47179;-77
2023/09/15 01:26:52;;;;;;;17.88;15.85;;;14.40;99.90;;;;;;5029162;28;47705;-77
2023/09/15 01:29:33;;;;;;;19.05;17.08;;;14.40;99.90;;;;;;5041946;28;38156;-77
2023/09/15 01:32:01;;;;;;;20.67;16.75;;;14.40;99.90;;;;;;5025858;28;37164;-78
2023/09/15 01:34:27;;;;;;;18.80;16.55;;;14.40;99.90;;;;;;5018902;28;48692;-77
2023/09/15 01:36:54;;;;;;;19.38;16.75;;;14.30;99.90;;;;;;5033487;28;39505;-76
2023/09/15 01:39:20;;;;;;;19.05;16.98;;;14.30;99.90;;;;;;5018646;28;37897;-78
2023/09/15 01:41:46;;;;;;;19.55;17.27;;;14.30;99.90;;;;;;5038074;28;37362;-79
2023/09/15 01:44:12;;;;;;;20.15;17.00;;;14.20;99.90;;;;;;5040638;28;38597;-79
2023/09/15 01:46:38;;;;;;;21.35;17.67;;;14.20;99.90;;;;;;5020924;28;38607;-79
2023/09/15 01:49:05;;;;;;;19.08;17.00;;;14.20;99.90;;;;;;5036552;28;38230;-79
2023/09/15 01:51:32;;;;;;;19.80;17.80;;;14.20;99.90;;;;;;5021501;28;37419;-77
2023/09/15 01:53:58;;;;;;;23.42;19.15;;;14.10;99.90;;;;;;5021226;28;38645;-78
2023/09/15 01:56:28;;;;;;;20.77;18.20;;;14.10;99.90;;;;;;5020333;28;38382;-77
2023/09/15 01:58:54;;;;;;;20.25;17.88;;;14.10;99.90;;;;;;5019418;28;38061;-78
2023/09/15 02:01:20;;;;;;;20.92;18.23;;;14.10;99.90;;;;;;5037819;28;38526;-80
2023/09/15 02:03:47;;;;;;;23.42;18.77;;;14.00;99.90;;;;;;5021233;28;38211;-79
2023/09/15 02:06:16;;;;;;;21.13;18.42;;;14.00;99.90;;;;;;5037792;28;38800;-77
2023/09/15 02:08:46;;;;;;;20.50;17.98;;;14.00;99.90;;;;;;5035535;28;38066;-76
2023/09/15 02:11:12;;;;;;;24.50;19.10;;;14.00;99.90;;;;;;5021070;28;37041;-77
2023/09/15 02:13:40;;;;;;;25.38;20.08;;;13.90;99.90;;;;;;5021580;28;39504;-75
2023/09/15 02:16:06;;;;;;;21.95;18.45;;;13.90;99.90;;;;;;5025634;28;38277;-76
2023/09/15 02:18:32;;;;;;;23.45;18.92;;;13.90;99.90;;;;;;5024049;28;37571;-76
2023/09/15 02:20:59;;;;;;;22.00;19.63;;;13.90;99.90;;;;;;5028880;28;36151;-76
2023/09/15 02:23:25;;;;;;;20.42;17.40;;;13.80;99.90;;;;;;5035558;28;39591;-77
2023/09/15 02:25:51;;;;;;;21.90;19.52;;;13.80;99.90;;;;;;5021628;28;37646;-76
2023/09/15 02:28:21;;;;;;;23.48;19.63;;;13.80;99.90;;;;;;5018535;28;37770;-77
2023/09/15 02:30:48;;;;;;;24.42;20.60;;;13.70;99.90;;;;;;5037436;28;37825;-77
2023/09/15 02:33:14;;;;;;;23.58;19.27;;;13.70;99.90;;;;;;5022381;28;38346;-76
2023/09/15 02:35:41;;;;;;;22.58;20.05;;;13.70;99.90;;;;;;5037363;28;39698;-76
2023/09/15 02:38:07;;;;;;;23.85;19.95;;;13.70;99.90;;;;;;5019897;28;37155;-78
2023/09/15 02:40:33;;;;;;;21.13;18.60;;;13.70;99.90;;;;;;5022167;28;36026;-77
2023/09/15 02:42:59;;;;;;;25.15;19.80;;;13.60;99.90;;;;;;5037791;28;38496;-76
2023/09/15 02:45:25;;;;;;;23.58;20.35;;;13.60;99.90;;;;;;5035349;28;38525;-76
2023/09/15 02:47:51;;;;;;;24.55;19.38;;;13.60;99.90;;;;;;5040412;28;39194;-77
2023/09/15 02:50:17;;;;;;;22.88;20.30;;;13.60;99.90;;;;;;5023126;28;36455;-76
2023/09/15 02:52:43;;;;;;;22.83;19.42;;;13.50;99.90;;;;;;5034558;28;38637;-77
2023/09/15 02:55:09;;;;;;;23.58;19.77;;;13.50;99.90;;;;;;5019358;28;38049;-76
2023/09/15 02:57:36;;;;;;;26.98;22.05;;;13.50;99.90;;;;;;5022311;28;37530;-77
2023/09/15 03:00:07;;;;;;;24.52;20.33;;;13.40;99.90;;;;;;5044779;28;36889;-76
2023/09/15 03:02:33;;;;;;;23.33;20.65;;;13.40;99.90;;;;;;5038392;28;39553;-76
2023/09/15 03:04:59;;;;;;;24.55;19.73;;;13.40;99.90;;;;;;5028980;28;38740;-76
2023/09/15 03:07:25;;;;;;;22.33;19.73;;;13.30;99.90;;;;;;5024896;28;36888;-77
2023/09/15 03:09:53;;;;;;;24.60;20.48;;;13.30;99.90;;;;;;5040115;28;37476;-77
2023/09/15 03:12:19;;;;;;;24.95;22.25;;;13.30;99.90;;;;;;5022357;28;38593;-76
2023/09/15 03:14:45;;;;;;;26.10;21.25;;;13.30;99.90;;;;;;5017555;28;37423;-76
2023/09/15 03:17:11;;;;;;;25.20;20.63;;;13.30;99.90;;;;;;5036701;28;38055;-76
2023/09/15 03:19:38;;;;;;;24.55;21.90;;;13.20;99.90;;;;;;5037691;28;37920;-77
2023/09/15 03:22:05;;;;;;;25.15;21.42;;;13.20;99.90;;;;;;5034204;28;40359;-76
2023/09/15 03:24:31;;;;;;;24.17;20.55;;;13.20;99.90;;;;;;5016541;28;37304;-76
2023/09/15 03:26:57;;;;;;;23.20;20.73;;;13.20;99.90;;;;;;5019465;28;37226;-76
2023/09/15 03:29:23;;;;;;;26.15;23.30;;;13.20;99.90;;;;;;5019627;28;36319;-77
2023/09/15 03:31:49;;;;;;;23.40;20.48;;;13.10;99.90;;;;;;5033379;28;39757;-77
2023/09/15 03:34:16;;;;;;;24.70;21.85;;;13.10;99.90;;;;;;5032542;28;37591;-76
2023/09/15 03:36:42;;;;;;;26.38;22.27;;;13.10;99.90;;;;;;5021229;28;38285;-77
2023/09/15 03:39:09;;;;;;;28.45;22.35;;;13.10;99.90;;;;;;5033557;28;37307;-74
2023/09/15 03:41:35;;;;;;;25.77;22.20;;;13.00;99.90;;;;;;5022650;28;38096;-74
2023/09/15 03:44:01;;;;;;;26.48;22.23;;;13.00;99.90;;;;;;5036803;28;38477;-76
2023/09/15 03:46:27;;;;;;;23.00;20.45;;;13.00;99.90;;;;;;5015592;28;47236;-75
2023/09/15 03:48:53;;;;;;;24.38;21.77;;;13.00;99.90;;;;;;5019882;28;36350;-76
2023/09/15 03:51:20;;;;;;;31.90;23.25;;;13.00;99.90;;;;;;5035344;28;39139;-75
2023/09/15 03:53:46;;;;;;;27.20;21.80;;;13.00;99.90;;;;;;5037669;28;39097;-76
2023/09/15 03:56:12;;;;;;;25.63;22.92;;;13.00;99.90;;;;;;5019175;28;37034;-76
2023/09/15 03:58:38;;;;;;;28.35;22.80;;;13.00;99.90;;;;;;5027962;28;36054;-75
2023/09/15 04:01:06;;;;;;;25.42;22.73;;;13.00;99.90;;;;;;5027074;28;39571;-75
2023/09/15 04:03:34;;;;;;;26.70;22.60;;;13.00;99.90;;;;;;5019316;28;38562;-75
2023/09/15 04:06:00;;;;;;;27.10;22.58;;;12.90;99.90;;;;;;5036842;28;38097;-75
2023/09/15 04:08:26;;;;;;;31.30;23.20;;;12.90;99.90;;;;;;5036001;28;47587;-75
2023/09/15 04:10:53;;;;;;;27.45;24.52;;;12.90;99.90;;;;;;5038298;28;38532;-75
2023/09/15 04:13:19;;;;;;;27.40;24.27;;;12.90;99.90;;;;;;5036110;28;38166;-75
2023/09/15 04:15:45;;;;;;;25.90;22.95;;;12.90;99.90;;;;;;5020720;28;37557;-76
2023/09/15 04:18:11;;;;;;;25.30;22.60;;;12.90;99.90;;;;;;5036916;28;37138;-77
2023/09/15 04:20:37;;;;;;;29.17;24.60;;;12.90;99.90;;;;;;5034634;28;39260;-75
2023/09/15 04:23:03;;;;;;;28.80;24.08;;;12.90;99.90;;;;;;5026691;28;37655;-76
2023/09/15 04:25:29;;;;;;;26.23;23.38;;;12.80;99.90;;;;;;5021330;28;38063;-76
2023/09/15 04:27:56;;;;;;;28.02;24.60;;;12.80;99.90;;;;;;5032969;28;37841;-75
2023/09/15 04:30:22;;;;;;;28.80;24.30;;;12.80;99.90;;;;;;5034114;28;40276;-75
2023/09/15 04:32:48;;;;;;;29.08;23.60;;;12.80;99.90;;;;;;5035345;28;38125;-75
2023/09/15 04:35:14;;;;;;;31.83;27.15;;;12.80;99.90;;;;;;5037718;28;37747;-75
2023/09/15 04:37:40;;;;;;;27.85;24.50;;;12.80;99.90;;;;;;5021512;28;39356;-75
2023/09/15 04:40:07;;;;;;;28.88;24.73;;;12.80;99.90;;;;;;5039133;28;38281;-76
2023/09/15 04:42:33;;;;;;;30.75;27.40;;;12.80;99.90;;;;;;5018836;28;35933;-76
2023/09/15 04:45:02;;;;;;;30.60;25.70;;;12.80;99.90;;;;;;5022722;28;36875;-75
2023/09/15 04:47:38;;;;;;;30.17;26.98;;;12.80;99.90;;;;;;5018323;28;34989;-75
2023/09/15 04:50:06;;;;;;;29.00;25.58;;;12.70;99.90;;;;;;5036552;28;38833;-76
2023/09/15 04:52:32;;;;;;;30.08;25.85;;;12.70;99.90;;;;;;5021332;28;46746;-76
2023/09/15 04:54:58;;;;;;;30.25;26.10;;;12.70;99.90;;;;;;5034998;28;36682;-75
2023/09/15 04:57:24;;;;;;;28.38;25.20;;;12.70;99.90;;;;;;5035558;28;38195;-76
2023/09/15 04:59:53;;;;;;;31.73;26.48;;;12.70;99.90;;;;;;5024980;28;37956;-75
2023/09/15 05:02:23;;;;;;;32.60;28.27;;;12.70;99.90;;;;;;5038376;28;38182;-75
2023/09/15 05:04:53;;;;;;;30.02;26.35;;;12.70;99.90;;;;;;5044948;28;37627;-75
2023/09/15 05:07:19;;;;;;;28.73;25.27;;;12.60;99.90;;;;;;5024881;28;37232;-75
2023/09/15 05:09:48;;;;;;;33.20;26.30;;;12.60;99.90;;;;;;5024314;28;37711;-75
2023/09/15 05:12:16;;;;;;;33.53;26.88;;;12.60;99.90;;;;;;5021813;28;37627;-76
2023/09/15 05:14:42;;;;;;;31.05;26.63;;;12.60;99.90;;;;;;5043557;28;38833;-75
2023/09/15 05:17:08;;;;;;;32.67;28.45;;;12.60;99.90;;;;;;5021094;28;36839;-75
2023/09/15 05:19:34;;;;;;;29.60;25.33;;;12.60;99.90;;;;;;5023549;28;37927;-75
2023/09/15 05:22:01;;;;;;;30.67;26.42;;;12.60;99.90;;;;;;5022943;28;36988;-75
2023/09/15 05:24:27;;;;;;;35.05;29.45;;;12.60;99.90;;;;;;5041896;28;48055;-76
2023/09/15 05:26:53;;;;;;;34.42;29.45;;;12.60;99.90;;;;;;5036184;28;37382;-74
2023/09/15 05:29:19;;;;;;;34.63;27.60;;;12.60;99.90;;;;;;5022350;28;37836;-75
2023/09/15 05:31:45;;;;;;;28.25;25.17;;;12.60;99.90;;;;;;5024035;28;37411;-74
2023/09/15 05:34:11;;;;;;;35.28;28.40;;;12.60;99.90;;;;;;5023771;28;38408;-75
2023/09/15 05:36:37;;;;;;;31.90;27.48;;;12.60;99.90;;;;;;5024181;28;34504;-75
2023/09/15 05:39:04;;;;;;;31.13;27.35;;;12.60;99.90;;;;;;5023531;28;40522;-74
2023/09/15 05:41:30;;;;;;;30.30;27.08;;;12.60;99.90;;;;;;5021317;28;37432;-75
2023/09/15 05:43:56;;;;;;;30.90;27.15;;;12.60;99.90;;;;;;5005619;28;37170;-75
2023/09/15 05:46:22;;;;;;;31.60;27.38;;;12.60;99.90;;;;;;5024305;28;37849;-75
2023/09/15 05:48:48;;;;;;;30.00;26.77;;;12.70;99.90;;;;;;5017374;28;38086;-75
2023/09/15 05:51:14;;;;;;;31.95;27.38;;;12.70;99.90;;;;;;5037986;28;38258;-75
2023/09/15 05:53:40;;;;;;;30.98;27.45;;;12.70;99.90;;;;;;5016418;28;38926;-75
2023/09/15 05:56:06;;;;;;;35.38;28.55;;;12.70;99.90;;;;;;5018741;28;36474;-74
2023/09/15 05:58:33;;;;;;;31.70;27.45;;;12.70;99.90;;;;;;5016831;28;37542;-74
2023/09/15 06:00:59;;;;;;;31.20;27.42;;;12.70;99.90;;;;;;5030188;28;37252;-75
2023/09/15 06:03:25;;;;;;;30.05;26.40;;;12.70;99.90;;;;;;5025761;28;37961;-76
2023/09/15 06:05:52;;;;;;;31.67;28.27;;;12.80;99.90;;;;;;5030533;28;38129;-76
2023/09/15 06:08:19;;;;;;;30.35;26.65;;;12.80;99.90;;;;;;5035613;28;38388;-76
2023/09/15 06:10:47;;;;;;;36.08;29.15;;;12.80;99.90;;;;;;5019330;28;37605;-76
2023/09/15 06:13:14;;;;;;;35.83;30.02;;;12.80;99.90;;;;;;5031618;28;37533;-76
2023/09/15 06:15:40;;;;;;;37.20;31.15;;;12.80;99.90;;;;;;5014337;28;36637;-75
2023/09/15 06:18:07;;;;;;;35.22;29.52;;;12.90;99.90;;;;;;5031510;28;39373;-75
2023/09/15 06:20:33;;;;;;;34.83;30.00;;;12.90;99.90;;;;;;5017279;28;39677;-75
2023/09/15 06:23:03;;;;;;;47.05;34.58;;;13.00;99.90;;;;;;5014441;28;37552;-76
2023/09/15 06:25:32;;;;;;;40.15;32.97;;;13.10;99.90;;;;;;5030408;28;48148;-75
2023/09/15 06:28:00;;;;;;;38.75;33.03;;;13.10;99.90;;;;;;5011313;28;38696;-76
2023/09/15 06:30:27;;;;;;;45.92;35.75;;;13.20;99.90;;;;;;5025825;28;39370;-73
2023/09/15 06:32:55;;;;;;;36.13;32.13;;;13.20;99.90;;;;;;5014088;28;37026;-75
2023/09/15 06:35:22;;;;;;;38.83;32.67;;;13.30;99.90;;;;;;5017406;28;39194;-77
2023/09/15 06:37:49;;;;;;;47.53;37.08;;;13.30;99.90;;;;;;5018781;28;37678;-77
2023/09/15 06:40:15;;;;;;;46.72;36.65;;;13.40;99.90;;;;;;5037227;28;37931;-77
2023/09/15 06:42:41;;;;;;;37.33;31.50;;;13.40;99.90;;;;;;5038219;28;38555;-76
2023/09/15 06:45:07;;;;;;;37.22;30.95;;;13.50;99.90;;;;;;5019393;28;37257;-77
2023/09/15 06:47:33;;;;;;;41.28;34.03;;;13.60;99.90;;;;;;5040336;28;38540;-76
2023/09/15 06:50:00;;;;;;;36.75;31.60;;;13.60;99.90;;;;;;5033111;28;38038;-76
2023/09/15 06:52:26;;;;;;;42.78;32.75;;;13.70;99.90;;;;;;5020808;28;36934;-76
2023/09/15 06:54:52;;;;;;;37.58;32.38;;;13.80;99.90;;;;;;5012805;28;37474;-76
2023/09/15 06:57:18;;;;;;;36.90;31.10;;;13.90;99.90;;;;;;5020364;28;37425;-76
2023/09/15 06:59:44;;;;;;;38.08;31.92;;;13.90;99.90;;;;;;5038760;28;39218;-77
2023/09/15 07:02:11;;;;;;;41.28;34.05;;;14.00;99.90;;;;;;5013312;28;36998;-77
2023/09/15 07:04:37;;;;;;;36.20;30.52;;;14.10;99.90;;;;;;5015690;28;37215;-75
2023/09/15 07:07:03;;;;;;;35.22;29.25;;;14.20;99.90;;;;;;5034149;28;38631;-76
2023/09/15 07:09:29;;;;;;;36.28;28.08;;;14.20;99.90;;;;;;5038890;28;38560;-76
2023/09/15 07:11:55;;;;;;;32.33;28.45;;;14.30;99.90;;;;;;5036991;28;38479;-74
2023/09/15 07:14:21;;;;;;;32.42;27.45;;;14.40;99.90;;;;;;5029942;28;36113;-75
2023/09/15 07:16:48;;;;;;;33.20;26.88;;;14.50;99.90;;;;;;5011615;28;37846;-76
2023/09/15 07:19:14;;;;;;;29.98;26.73;;;14.60;99.90;;;;;;5011711;28;38806;-75
2023/09/15 07:21:42;;;;;;;30.13;23.45;;;14.60;99.90;;;;;;5032812;28;38065;-76
2023/09/15 07:24:08;;;;;;;31.17;23.90;;;14.70;99.90;;;;;;5011279;28;38412;-75
2023/09/15 07:26:34;;;;;;;31.25;23.83;;;14.80;99.90;;;;;;5032230;28;39446;-76
2023/09/15 07:29:00;;;;;;;27.00;22.27;;;15.00;99.90;;;;;;5015330;28;38542;-75
2023/09/15 07:31:27;;;;;;;27.75;22.48;;;15.00;99.90;;;;;;5029410;28;48420;-77
2023/09/15 07:33:53;;;;;;;26.58;22.50;;;15.10;99.90;;;;;;5013735;28;37213;-79
2023/09/15 07:36:19;;;;;;;25.80;21.88;;;15.10;99.90;;;;;;5009555;28;37354;-79
2023/09/15 07:38:46;;;;;;;25.30;21.63;;;15.20;99.90;;;;;;5012374;28;37801;-80
2023/09/15 07:41:13;;;;;;;24.92;22.25;;;15.30;99.90;;;;;;5012458;28;37401;-76
2023/09/15 07:43:39;;;;;;;31.02;24.13;;;15.40;99.90;;;;;;5006761;28;36783;-76
2023/09/15 07:46:06;;;;;;;27.63;22.73;;;15.40;99.90;;;;;;5030278;28;38959;-76
2023/09/15 07:48:32;;;;;;;32.63;24.77;;;15.50;99.90;;;;;;5007831;28;37301;-76
2023/09/15 07:50:58;;;;;;;25.38;22.02;;;15.60;99.90;;;;;;5012828;28;37106;-75
2023/09/15 07:53:24;;;;;;;27.67;23.38;;;15.60;99.90;;;;;;5024464;28;36095;-76
2023/09/15 07:55:50;;;;;;;28.70;23.83;;;15.70;99.90;;;;;;5011310;28;37889;-77
2023/09/15 07:58:16;;;;;;;27.63;22.70;;;15.80;99.90;;;;;;5016371;28;38788;-76
2023/09/15 08:00:43;;;;;;;24.50;20.98;;;15.90;99.90;;;;;;5013880;28;39672;-76
2023/09/15 08:03:09;;;;;;;26.23;20.80;;;16.10;99.90;;;;;;5029875;28;37188;-76
2023/09/15 08:05:35;;;;;;;23.05;20.48;;;16.30;99.90;;;;;;5025957;28;38856;-80
2023/09/15 08:08:01;;;;;;;27.75;23.25;;;16.40;99.90;;;;;;5031305;28;39110;-80
2023/09/15 08:10:29;;;;;;;26.13;21.38;;;16.50;99.90;;;;;;5030002;28;37530;-77
2023/09/15 08:12:55;;;;;;;25.02;20.30;;;16.50;99.90;;;;;;5029543;28;36921;-78
2023/09/15 08:15:22;;;;;;;23.58;18.40;;;16.50;99.90;;;;;;5012731;28;38055;-78
2023/09/15 08:17:49;;;;;;;22.88;17.60;;;16.60;99.90;;;;;;5013007;28;37892;-79
2023/09/15 08:20:15;;;;;;;21.55;15.80;;;16.70;99.90;;;;;;5033345;28;37516;-78
2023/09/15 08:22:42;;;;;;;16.60;13.70;;;16.80;99.90;;;;;;5012235;28;37238;-77
2023/09/15 08:25:10;;;;;;;18.45;14.82;;;17.00;99.90;;;;;;5027713;28;37505;-76
2023/09/15 08:27:37;;;;;;;14.40;12.55;;;17.20;99.90;;;;;;5013095;28;38754;-77
2023/09/15 08:30:05;;;;;;;15.93;12.63;;;17.60;99.90;;;;;;5014804;28;37198;-82
2023/09/15 08:32:34;;;;;;;15.88;12.00;;;18.00;99.90;;;;;;5027347;28;37343;-73
2023/09/15 08:35:01;;;;;;;13.43;10.68;;;18.20;99.90;;;;;;5013440;28;37386;-73
2023/09/15 08:37:27;;;;;;;12.15;9.90;;;18.40;99.90;;;;;;5451197;22;41686;-81
2023/09/15 08:42:36;;;;;;;12.93;9.15;;;18.50;99.90;;;;;;4991481;28;20758;-78
2023/09/15 08:45:05;;;;;;;11.45;9.35;;;18.60;99.90;;;;;;5023841;28;38435;-78
2023/09/15 08:47:39;;;;;;;16.98;9.88;;;18.70;99.90;;;;;;5019822;28;46838;-78
2023/09/15 08:50:07;;;;;;;12.95;9.57;;;18.80;99.90;;;;;;5017770;28;37938;-80
2023/09/15 08:52:35;;;;;;;12.52;9.38;;;18.80;99.90;;;;;;5021624;28;37433;-78
2023/09/15 08:55:03;;;;;;;10.15;8.13;;;19.10;99.90;;;;;;5009175;28;37787;-78
2023/09/15 08:57:30;;;;;;;13.30;9.45;;;19.20;99.90;;;;;;5028611;28;48843;-78
2023/09/15 08:59:59;;;;;;;11.15;8.68;;;19.40;99.90;;;;;;5008143;28;37877;-78
2023/09/15 09:02:25;;;;;;;10.77;8.80;;;19.60;99.90;;;;;;5027291;28;37728;-78
2023/09/15 09:04:53;;;;;;;9.73;7.82;;;19.70;99.90;;;;;;5028072;28;39048;-77
2023/09/15 09:07:21;;;;;;;9.07;7.60;;;19.70;99.90;;;;;;5010665;28;37500;-77
2023/09/15 09:09:48;;;;;;;12.35;9.20;;;20.00;99.90;;;;;;5020560;28;36871;-77
2023/09/15 09:12:15;;;;;;;10.02;7.65;;;20.10;97.10;;;;;;5003808;28;38421;-75
2023/09/15 09:14:41;;;;;;;13.35;9.13;;;20.30;96.90;;;;;;5019857;28;39408;-76
2023/09/15 09:17:08;;;;;;;14.35;8.77;;;20.30;61.40;;;;;;5003189;28;37270;-77
2023/09/15 09:19:39;;;;;;;11.50;7.95;;;20.30;86.50;;;;;;5019206;28;39020;-77
2023/09/15 09:22:08;;;;;;;10.70;6.60;;;20.60;94.10;;;;;;5000114;28;36284;-76
2023/09/15 09:24:36;;;;;;;10.40;7.82;;;20.80;85.00;;;;;;5004791;28;38002;-77
2023/09/15 09:27:09;;;;;;;11.52;8.13;;;20.90;94.40;;;;;;4999501;28;37512;-76
2023/09/15 09:29:36;;;;;;;9.07;7.70;;;20.80;56.00;;;;;;5003702;28;40050;-77
2023/09/15 09:32:03;;;;;;;12.40;8.50;;;20.80;56.50;;;;;;5000032;28;36105;-76
2023/09/15 09:34:29;;;;;;;11.90;7.88;;;20.90;58.80;;;;;;5000500;28;38201;-77
2023/09/15 09:36:55;;;;;;;8.82;7.43;;;21.00;54.40;;;;;;5023160;28;39500;-77
2023/09/15 09:39:22;;;;;;;10.27;7.63;;;21.00;47.40;;;;;;5000167;28;36804;-77
2023/09/15 09:41:48;;;;;;;9.38;8.13;;;21.10;52.20;;;;;;5006572;28;38004;-77
2023/09/15 09:44:14;;;;;;;8.30;5.82;;;21.30;58.40;;;;;;5001610;28;39139;-77
2023/09/15 09:46:41;;;;;;;11.40;8.30;;;21.50;50.80;;;;;;5018154;28;39143;-77
2023/09/15 09:49:08;;;;;;;9.50;7.45;;;21.60;44.10;;;;;;5020129;28;36810;-77
2023/09/15 09:51:38;;;;;;;9.95;6.68;;;21.50;22.70;;;;;;5023035;28;35740;-77
2023/09/15 09:54:06;;;;;;;8.15;7.35;;;21.40;22.40;;;;;;5019988;28;38935;-77
2023/09/15 09:56:33;;;;;;;8.95;7.20;;;21.50;29.20;;;;;;5003995;28;38618;-77
2023/09/15 09:59:11;;;;;;;8.90;6.78;;;21.40;3.40;;;;;;5018546;28;40143;-77
2023/09/15 10:01:37;;;;;;;13.50;7.40;;;21.50;44.30;;;;;;4996756;28;47196;-76
2023/09/15 10:04:06;;;;;;;11.10;7.43;;;21.70;11.30;;;;;;4999329;28;39128;-75
2023/09/15 10:06:37;;;;;;;7.47;6.30;;;21.90;22.20;;;;;;4998704;28;37576;-75
2023/09/15 10:09:06;;;;;;;12.60;7.53;;;22.10;4.60;;;;;;4997207;28;36879;-76
2023/09/15 10:11:36;;;;;;;9.73;7.00;;;22.20;15.80;;;;;;5027256;28;37643;-76
2023/09/15 10:14:03;;;;;;;9.88;6.65;;;22.00;1.00;;;;;;5007757;28;37909;-76
2023/09/15 10:16:33;;;;;;;11.88;7.88;;;21.90;3.70;;;;;;5002706;28;38222;-76
2023/09/15 10:19:03;;;;;;;10.57;6.82;;;21.80;1.00;;;;;;5006733;28;37195;-76
2023/09/15 10:21:32;;;;;;;8.07;6.07;;;21.90;1.30;;;;;;5024217;28;48850;-76
2023/09/15 10:24:07;;;;;;;7.68;6.65;;;22.20;1.00;;;;;;5022747;28;39596;-75
2023/09/15 10:26:35;;;;;;;10.43;6.05;;;22.50;1.00;;;;;;5015582;28;47023;-76
2023/09/15 10:29:01;;;;;;;6.28;5.05;;;22.70;1.00;;;;;;5009015;28;37929;-76
2023/09/15 10:31:35;;;;;;;7.43;5.72;;;22.70;1.00;;;;;;5003870;28;47109;-76
2023/09/15 10:34:02;;;;;;;7.13;6.43;;;22.40;1.00;;;;;;5002582;28;38114;-75
2023/09/15 10:36:28;;;;;;;8.32;6.95;;;22.60;1.00;;;;;;5006056;28;48318;-75
2023/09/15 10:38:57;;;;;;;8.48;7.07;;;22.50;1.00;;;;;;5025639;28;37305;-75
2023/09/15 10:41:27;;;;;;;14.13;8.18;;;22.30;1.00;;;;;;5008011;28;37005;-75
2023/09/15 10:43:53;;;;;;;8.40;6.40;;;22.40;1.00;;;;;;5022485;28;38691;-75
2023/09/15 10:46:20;;;;;;;8.98;7.25;;;22.30;20.80;;;;;;5022125;28;39907;-76
2023/09/15 10:48:48;;;;;;;10.88;8.10;;;22.60;15.00;;;;;;5026860;28;38624;-77
2023/09/15 10:51:22;;;;;;;10.75;6.25;;;22.70;1.00;;;;;;5005483;28;35827;-77
2023/09/15 10:53:50;;;;;;;8.70;6.43;;;22.70;8.40;;;;;;5023201;28;37183;-76
2023/09/15 10:56:18;;;;;;;7.60;5.82;;;22.70;13.90;;;;;;5014936;28;39313;-76
2023/09/15 10:58:48;;;;;;;8.65;6.97;;;22.80;1.00;;;;;;5010768;28;37238;-76
2023/09/15 11:01:15;;;;;;;9.57;6.65;;;22.50;1.00;;;;;;5019549;28;38417;-76
2023/09/15 11:03:42;;;;;;;11.57;6.97;;;22.60;19.90;;;;;;5015291;28;39239;-75
2023/09/15 11:06:11;;;;;;;9.23;7.20;;;22.90;17.90;;;;;;5015387;28;37598;-75
2023/09/15 11:08:39;;;;;;;10.02;6.72;;;23.10;4.40;;;;;;5001918;28;37020;-76
2023/09/15 11:11:11;;;;;;;6.93;5.25;;;23.10;29.40;;;;;;5004263;28;37327;-76
2023/09/15 11:13:39;;;;;;;6.20;5.38;;;23.30;1.00;;;;;;5021882;28;38042;-76
2023/09/15 11:16:07;;;;;;;9.48;5.45;;;23.60;1.00;;;;;;5021393;28;41120;-75
2023/09/15 11:18:34;;;;;;;8.27;5.93;;;23.40;1.00;;;;;;5019251;28;38459;-77
2023/09/15 11:21:01;;;;;;;6.82;4.50;;;23.50;1.00;;;;;;5019897;28;37952;-77
2023/09/15 11:23:28;;;;;;;5.00;3.90;;;23.30;1.00;;;;;;5008100;28;47137;-77
2023/09/15 11:26:01;;;;;;;5.38;3.65;;;23.10;1.00;;;;;;5015254;28;38421;-77
2023/09/15 11:28:31;;;;;;;6.25;4.00;;;22.60;1.00;;;;;;5022689;28;48210;-77
2023/09/15 11:30:58;;;;;;;5.20;4.07;;;22.30;1.00;;;;;;5020787;28;36840;-77
2023/09/15 11:33:25;;;;;;;6.22;4.05;;;21.90;1.00;;;;;;5000155;28;39655;-77
2023/09/15 11:35:51;;;;;;;8.65;3.97;;;21.90;1.00;;;;;;5020648;28;37092;-77
2023/09/15 11:38:18;;;;;;;6.32;3.65;;;22.20;11.90;;;;;;5004490;28;37797;-77
2023/09/15 11:40:46;;;;;;;6.50;3.15;;;22.60;1.00;;;;;;5005412;28;36206;-77
2023/09/15 11:43:13;;;;;;;6.75;3.60;;;22.80;16.90;;;;;;5000776;28;37779;-78
2023/09/15 11:45:40;;;;;;;4.65;3.38;;;23.00;1.00;;;;;;4997595;28;37251;-78
2023/09/15 11:48:07;;;;;;;8.38;4.32;;;23.00;1.00;;;;;;5021106;28;37752;-78
2023/09/15 11:50:34;;;;;;;11.52;4.90;;;23.00;1.00;;;;;;5023616;28;38117;-78
2023/09/15 11:53:00;;;;;;;8.63;6.10;;;22.50;1.00;;;;;;5004222;28;36736;-77
2023/09/15 11:55:26;;;;;;;8.68;4.78;;;22.30;1.00;;;;;;5024080;28;46849;-77
2023/09/15 11:57:53;;;;;;;4.93;3.42;;;22.50;11.50;;;;;;5005545;28;38010;-78
2023/09/15 12:00:20;;;;;;;7.43;4.60;;;22.50;2.00;;;;;;5001084;28;36000;-77
2023/09/15 12:02:47;;;;;;;7.32;4.35;;;22.30;1.00;;;;;;5018912;28;39924;-77
2023/09/15 12:05:15;;;;;;;4.78;3.08;;;22.10;2.90;;;;;;5001916;28;39099;-77
2023/09/15 12:07:46;;;;;;;5.70;3.20;;;22.00;28.70;;;;;;5004714;28;37796;-76
2023/09/15 12:10:16;;;;;;;6.32;3.63;;;22.00;1.00;;;;;;5008596;28;36077;-76
2023/09/15 12:12:44;;;;;;;6.70;4.97;;;21.90;16.40;;;;;;5004369;28;38284;-76
2023/09/15 12:15:13;;;;;;;9.48;5.40;;;21.70;19.70;;;;;;5020102;28;37450;-77
2023/09/15 12:17:45;;;;;;;6.45;5.00;;;21.40;1.00;;;;;;5002394;28;36750;-76
2023/09/15 12:20:12;;;;;;;7.05;5.00;;;21.30;18.00;;;;;;5003065;28;36060;-76
2023/09/15 12:22:41;;;;;;;7.40;5.07;;;21.20;1.00;;;;;;5018356;28;38487;-77
2023/09/15 12:25:10;;;;;;;7.95;5.30;;;21.30;21.20;;;;;;5000193;28;38155;-77
2023/09/15 12:27:40;;;;;;;7.50;4.70;;;21.20;21.10;;;;;;5003456;28;38583;-77
2023/09/15 12:30:08;;;;;;;8.88;5.05;;;21.20;36.90;;;;;;4998604;28;37163;-76
2023/09/15 12:32:35;;;;;;;9.20;6.18;;;21.20;16.90;;;;;;5004792;28;47101;-77
2023/09/15 12:35:05;;;;;;;7.50;5.10;;;21.50;14.40;;;;;;5003863;28;38057;-76
2023/09/15 12:37:34;;;;;;;8.43;6.13;;;21.80;7.90;;;;;;5002465;28;47401;-77
2023/09/15 12:40:00;;;;;;;9.85;4.78;;;22.20;20.00;;;;;;5021552;28;37692;-76